KDAB/DAB METAR and TAF weather

Enter ICAO airport designator
Station Type Date Time Source
KDAB METAR 2018/10/21 03:53 UTC NOAA

KDAB 210353Z 26006KT 10SM CLR 23/22 A2999 RMK AO2 SLP156 T02330222


Station Type Date Time Source
KDAB Decoded METAR 2018/10/21 03:53 UTC NOAA

DAYTONA BEACH INTERNATIONAL, FL, United States (KDAB) 29-10N 81-04W 9M
Oct 20, 2018 - 11:53 PM EDT / 2018.10.21 0353 UTC
Wind: from the W (260 degrees) at 7 MPH (6 KT):0
Visibility: 10 mile(s):0
Sky conditions: clear
Temperature: 73.9 F (23.3 C)
Dew Point: 72.0 F (22.2 C)
Relative Humidity: 93%
Pressure (altimeter): 29.99 in. Hg (1015 hPa)
ob: KDAB 210353Z 26006KT 10SM CLR 23/22 A2999 RMK AO2 SLP156 T02330222
cycle: 4

Station Type Date Time Source
KDAB TAF 2018/10/20 18:45 UTC NOAA

TAF KDAB 201737Z 2018/2118 28007KT P6SM SCT040
FM202100 06007KT P6SM VCSH SCT045 BKN080
FM210200 28003KT P6SM FEW050 SCT250
FM211300 01012G19KT P6SM SCT035 BKN120


Example: see airport list